sensor_id;sensor_type;location;lat;lon;timestamp;P1;durP1;ratioP1;P2;durP2;ratioP2
75937;SDS011;64615;32.062;34.834;2024-02-04T00:02:18;7.63;;;3.10;;
75937;SDS011;64615;32.062;34.834;2024-02-04T00:04:45;6.30;;;3.42;;
75937;SDS011;64615;32.062;34.834;2024-02-04T00:07:11;7.13;;;3.45;;
75937;SDS011;64615;32.062;34.834;2024-02-04T00:09:36;6.75;;;3.20;;
75937;SDS011;64615;32.062;34.834;2024-02-04T00:12:02;7.88;;;3.80;;
75937;SDS011;64615;32.062;34.834;2024-02-04T00:14:29;8.07;;;3.47;;
75937;SDS011;64615;32.062;34.834;2024-02-04T00:16:55;7.00;;;3.20;;
75937;SDS011;64615;32.062;34.834;2024-02-04T00:19:21;7.00;;;3.30;;
75937;SDS011;64615;32.062;34.834;2024-02-04T00:21:46;6.45;;;3.40;;
75937;SDS011;64615;32.062;34.834;2024-02-04T00:24:12;6.72;;;3.60;;
75937;SDS011;64615;32.062;34.834;2024-02-04T00:26:37;7.97;;;3.13;;
75937;SDS011;64615;32.062;34.834;2024-02-04T00:29:03;8.23;;;3.38;;
75937;SDS011;64615;32.062;34.834;2024-02-04T00:31:29;7.47;;;3.40;;
75937;SDS011;64615;32.062;34.834;2024-02-04T00:33:54;6.50;;;3.20;;
75937;SDS011;64615;32.062;34.834;2024-02-04T00:36:20;8.93;;;3.65;;
75937;SDS011;64615;32.062;34.834;2024-02-04T00:38:46;7.03;;;3.08;;
75937;SDS011;64615;32.062;34.834;2024-02-04T00:41:12;8.30;;;3.25;;
75937;SDS011;64615;32.062;34.834;2024-02-04T00:43:38;7.35;;;3.20;;
75937;SDS011;64615;32.062;34.834;2024-02-04T00:46:03;7.53;;;3.35;;
75937;SDS011;64615;32.062;34.834;2024-02-04T00:48:29;7.78;;;3.30;;
75937;SDS011;64615;32.062;34.834;2024-02-04T00:50:55;7.25;;;3.08;;
75937;SDS011;64615;32.062;34.834;2024-02-04T00:53:20;6.13;;;3.30;;
75937;SDS011;64615;32.062;34.834;2024-02-04T00:55:46;8.10;;;3.38;;
75937;SDS011;64615;32.062;34.834;2024-02-04T00:58:11;5.93;;;3.03;;
75937;SDS011;64615;32.062;34.834;2024-02-04T01:00:37;6.10;;;3.25;;
75937;SDS011;64615;32.062;34.834;2024-02-04T01:03:03;6.03;;;3.15;;
75937;SDS011;64615;32.062;34.834;2024-02-04T01:05:29;6.00;;;2.90;;
75937;SDS011;64615;32.062;34.834;2024-02-04T01:07:54;8.60;;;3.15;;
75937;SDS011;64615;32.062;34.834;2024-02-04T01:10:20;9.20;;;3.30;;
75937;SDS011;64615;32.062;34.834;2024-02-04T01:12:45;6.63;;;3.15;;
75937;SDS011;64615;32.062;34.834;2024-02-04T01:15:11;7.05;;;3.10;;
75937;SDS011;64615;32.062;34.834;2024-02-04T01:17:37;8.43;;;3.47;;
75937;SDS011;64615;32.062;34.834;2024-02-04T01:20:03;6.05;;;3.15;;
75937;SDS011;64615;32.062;34.834;2024-02-04T01:22:30;6.93;;;3.22;;
75937;SDS011;64615;32.062;34.834;2024-02-04T01:24:56;7.53;;;2.80;;
75937;SDS011;64615;32.062;34.834;2024-02-04T01:27:21;7.07;;;3.65;;
75937;SDS011;64615;32.062;34.834;2024-02-04T01:29:47;7.15;;;3.30;;
75937;SDS011;64615;32.062;34.834;2024-02-04T01:32:13;6.28;;;3.17;;
75937;SDS011;64615;32.062;34.834;2024-02-04T01:34:39;7.43;;;3.33;;
75937;SDS011;64615;32.062;34.834;2024-02-04T01:37:04;6.80;;;3.35;;
75937;SDS011;64615;32.062;34.834;2024-02-04T01:39:30;5.95;;;2.65;;
75937;SDS011;64615;32.062;34.834;2024-02-04T01:41:55;8.38;;;3.45;;
75937;SDS011;64615;32.062;34.834;2024-02-04T01:44:21;9.02;;;3.72;;
75937;SDS011;64615;32.062;34.834;2024-02-04T01:46:48;7.88;;;3.30;;
75937;SDS011;64615;32.062;34.834;2024-02-04T01:49:14;10.10;;;3.58;;
75937;SDS011;64615;32.062;34.834;2024-02-04T01:51:40;7.82;;;3.45;;
75937;SDS011;64615;32.062;34.834;2024-02-04T01:54:06;8.48;;;3.25;;
75937;SDS011;64615;32.062;34.834;2024-02-04T01:56:32;7.25;;;3.17;;
75937;SDS011;64615;32.062;34.834;2024-02-04T01:58:59;8.10;;;3.88;;
75937;SDS011;64615;32.062;34.834;2024-02-04T02:01:25;6.90;;;3.17;;
75937;SDS011;64615;32.062;34.834;2024-02-04T02:03:51;8.00;;;3.50;;
75937;SDS011;64615;32.062;34.834;2024-02-04T02:06:17;6.82;;;3.17;;
75937;SDS011;64615;32.062;34.834;2024-02-04T02:08:44;6.22;;;3.10;;
75937;SDS011;64615;32.062;34.834;2024-02-04T02:11:16;8.90;;;3.00;;
75937;SDS011;64615;32.062;34.834;2024-02-04T02:13:47;7.05;;;3.40;;
75937;SDS011;64615;32.062;34.834;2024-02-04T02:16:21;8.82;;;3.20;;
75937;SDS011;64615;32.062;34.834;2024-02-04T02:26:44;6.68;;;3.08;;
75937;SDS011;64615;32.062;34.834;2024-02-04T02:29:10;7.50;;;3.25;;
75937;SDS011;64615;32.062;34.834;2024-02-04T02:31:36;7.55;;;3.30;;
75937;SDS011;64615;32.062;34.834;2024-02-04T02:34:04;7.43;;;3.30;;
75937;SDS011;64615;32.062;34.834;2024-02-04T02:36:33;8.57;;;3.25;;
75937;SDS011;64615;32.062;34.834;2024-02-04T02:39:08;6.90;;;3.00;;
75937;SDS011;64615;32.062;34.834;2024-02-04T02:41:38;8.50;;;3.33;;
75937;SDS011;64615;32.062;34.834;2024-02-04T02:44:07;10.48;;;3.40;;
75937;SDS011;64615;32.062;34.834;2024-02-04T02:46:34;6.72;;;3.13;;
75937;SDS011;64615;32.062;34.834;2024-02-04T02:49:01;8.25;;;3.42;;
75937;SDS011;64615;32.062;34.834;2024-02-04T02:51:28;6.70;;;2.88;;
75937;SDS011;64615;32.062;34.834;2024-02-04T02:53:53;6.82;;;3.13;;
75937;SDS011;64615;32.062;34.834;2024-02-04T02:56:19;9.48;;;3.10;;
75937;SDS011;64615;32.062;34.834;2024-02-04T02:58:44;7.63;;;3.00;;
75937;SDS011;64615;32.062;34.834;2024-02-04T03:01:10;5.35;;;2.75;;
75937;SDS011;64615;32.062;34.834;2024-02-04T03:03:36;7.45;;;3.00;;
75937;SDS011;64615;32.062;34.834;2024-02-04T03:06:01;6.10;;;2.95;;
75937;SDS011;64615;32.062;34.834;2024-02-04T03:08:27;8.20;;;3.15;;
75937;SDS011;64615;32.062;34.834;2024-02-04T03:10:53;8.10;;;3.13;;
75937;SDS011;64615;32.062;34.834;2024-02-04T03:13:18;8.50;;;3.15;;
75937;SDS011;64615;32.062;34.834;2024-02-04T03:15:44;5.45;;;2.75;;
75937;SDS011;64615;32.062;34.834;2024-02-04T03:18:10;5.95;;;2.90;;
75937;SDS011;64615;32.062;34.834;2024-02-04T03:20:36;5.22;;;2.50;;
75937;SDS011;64615;32.062;34.834;2024-02-04T03:23:01;6.53;;;3.00;;
75937;SDS011;64615;32.062;34.834;2024-02-04T03:25:27;6.82;;;3.00;;
75937;SDS011;64615;32.062;34.834;2024-02-04T03:27:54;6.70;;;2.72;;
75937;SDS011;64615;32.062;34.834;2024-02-04T03:30:20;6.72;;;3.00;;
75937;SDS011;64615;32.062;34.834;2024-02-04T03:32:46;6.75;;;2.80;;
75937;SDS011;64615;32.062;34.834;2024-02-04T03:35:11;8.23;;;3.22;;
75937;SDS011;64615;32.062;34.834;2024-02-04T03:37:37;6.03;;;2.80;;
75937;SDS011;64615;32.062;34.834;2024-02-04T03:40:02;6.97;;;3.20;;
75937;SDS011;64615;32.062;34.834;2024-02-04T03:42:28;8.18;;;2.72;;
75937;SDS011;64615;32.062;34.834;2024-02-04T03:44:55;7.35;;;2.67;;
75937;SDS011;64615;32.062;34.834;2024-02-04T03:47:21;6.10;;;2.67;;
75937;SDS011;64615;32.062;34.834;2024-02-04T03:49:46;6.25;;;3.00;;
75937;SDS011;64615;32.062;34.834;2024-02-04T03:52:12;6.07;;;2.97;;
75937;SDS011;64615;32.062;34.834;2024-02-04T03:54:38;8.00;;;3.03;;
75937;SDS011;64615;32.062;34.834;2024-02-04T03:57:03;6.40;;;2.97;;
75937;SDS011;64615;32.062;34.834;2024-02-04T03:59:29;5.82;;;2.75;;
75937;SDS011;64615;32.062;34.834;2024-02-04T04:01:55;7.25;;;3.03;;
75937;SDS011;64615;32.062;34.834;2024-02-04T04:04:22;5.93;;;2.80;;
75937;SDS011;64615;32.062;34.834;2024-02-04T04:06:48;8.02;;;3.08;;
75937;SDS011;64615;32.062;34.834;2024-02-04T04:09:14;5.68;;;2.70;;
75937;SDS011;64615;32.062;34.834;2024-02-04T04:11:40;8.95;;;3.13;;
75937;SDS011;64615;32.062;34.834;2024-02-04T04:14:05;7.47;;;2.70;;
75937;SDS011;64615;32.062;34.834;2024-02-04T04:16:31;10.60;;;3.10;;
75937;SDS011;64615;32.062;34.834;2024-02-04T04:18:57;15.90;;;3.28;;
75937;SDS011;64615;32.062;34.834;2024-02-04T04:21:23;11.50;;;2.95;;
75937;SDS011;64615;32.062;34.834;2024-02-04T04:23:49;10.80;;;3.17;;
75937;SDS011;64615;32.062;34.834;2024-02-04T04:26:15;8.65;;;3.38;;
75937;SDS011;64615;32.062;34.834;2024-02-04T04:28:41;10.27;;;3.42;;
75937;SDS011;64615;32.062;34.834;2024-02-04T04:31:06;10.48;;;3.35;;
75937;SDS011;64615;32.062;34.834;2024-02-04T04:33:32;9.75;;;3.20;;
75937;SDS011;64615;32.062;34.834;2024-02-04T04:35:57;11.15;;;3.10;;
75937;SDS011;64615;32.062;34.834;2024-02-04T04:38:23;7.55;;;3.25;;
75937;SDS011;64615;32.062;34.834;2024-02-04T04:40:49;8.23;;;3.10;;
75937;SDS011;64615;32.062;34.834;2024-02-04T04:43:14;9.02;;;3.28;;
75937;SDS011;64615;32.062;34.834;2024-02-04T04:45:40;9.27;;;3.20;;
75937;SDS011;64615;32.062;34.834;2024-02-04T04:48:06;27.23;;;4.00;;
75937;SDS011;64615;32.062;34.834;2024-02-04T04:50:35;8.70;;;2.97;;
75937;SDS011;64615;32.062;34.834;2024-02-04T04:53:01;13.30;;;3.45;;
75937;SDS011;64615;32.062;34.834;2024-02-04T04:55:27;16.45;;;3.63;;
75937;SDS011;64615;32.062;34.834;2024-02-04T04:57:52;11.73;;;3.25;;
75937;SDS011;64615;32.062;34.834;2024-02-04T05:00:18;18.67;;;3.90;;
75937;SDS011;64615;32.062;34.834;2024-02-04T05:02:44;23.02;;;3.35;;
75937;SDS011;64615;32.062;34.834;2024-02-04T05:05:11;22.88;;;3.58;;
75937;SDS011;64615;32.062;34.834;2024-02-04T05:07:37;22.15;;;3.97;;
75937;SDS011;64615;32.062;34.834;2024-02-04T05:10:03;17.35;;;3.65;;
75937;SDS011;64615;32.062;34.834;2024-02-04T05:12:29;9.35;;;2.97;;
75937;SDS011;64615;32.062;34.834;2024-02-04T05:14:55;16.58;;;3.50;;
75937;SDS011;64615;32.062;34.834;2024-02-04T05:17:20;15.77;;;3.65;;
75937;SDS011;64615;32.062;34.834;2024-02-04T05:19:47;20.90;;;3.95;;
75937;SDS011;64615;32.062;34.834;2024-02-04T05:22:12;21.13;;;4.05;;
75937;SDS011;64615;32.062;34.834;2024-02-04T05:24:38;18.67;;;3.22;;
75937;SDS011;64615;32.062;34.834;2024-02-04T05:27:04;8.55;;;2.60;;
75937;SDS011;64615;32.062;34.834;2024-02-04T05:29:30;9.93;;;2.30;;
75937;SDS011;64615;32.062;34.834;2024-02-04T05:31:56;6.80;;;2.25;;
75937;SDS011;64615;32.062;34.834;2024-02-04T05:34:22;7.78;;;2.45;;
75937;SDS011;64615;32.062;34.834;2024-02-04T05:36:47;9.32;;;2.70;;
75937;SDS011;64615;32.062;34.834;2024-02-04T05:39:14;9.45;;;2.35;;
75937;SDS011;64615;32.062;34.834;2024-02-04T05:41:41;11.93;;;2.10;;
75937;SDS011;64615;32.062;34.834;2024-02-04T05:44:07;4.93;;;2.05;;
75937;SDS011;64615;32.062;34.834;2024-02-04T05:46:37;4.22;;;1.83;;
75937;SDS011;64615;32.062;34.834;2024-02-04T05:49:03;6.03;;;2.10;;
75937;SDS011;64615;32.062;34.834;2024-02-04T05:51:31;5.32;;;1.77;;
75937;SDS011;64615;32.062;34.834;2024-02-04T05:53:58;5.80;;;2.10;;
75937;SDS011;64615;32.062;34.834;2024-02-04T05:56:24;4.93;;;1.73;;
75937;SDS011;64615;32.062;34.834;2024-02-04T05:58:49;4.55;;;1.77;;
75937;SDS011;64615;32.062;34.834;2024-02-04T06:01:16;4.47;;;1.52;;
75937;SDS011;64615;32.062;34.834;2024-02-04T06:03:42;5.05;;;1.80;;
75937;SDS011;64615;32.062;34.834;2024-02-04T06:06:17;4.47;;;1.70;;
75937;SDS011;64615;32.062;34.834;2024-02-04T06:08:45;3.22;;;1.60;;
75937;SDS011;64615;32.062;34.834;2024-02-04T06:11:11;7.13;;;1.92;;
75937;SDS011;64615;32.062;34.834;2024-02-04T06:13:41;4.47;;;1.98;;
75937;SDS011;64615;32.062;34.834;2024-02-04T06:16:08;7.10;;;1.73;;
75937;SDS011;64615;32.062;34.834;2024-02-04T06:18:35;7.93;;;1.80;;
75937;SDS011;64615;32.062;34.834;2024-02-04T06:21:04;3.92;;;1.50;;
75937;SDS011;64615;32.062;34.834;2024-02-04T06:23:30;5.75;;;1.73;;
75937;SDS011;64615;32.062;34.834;2024-02-04T06:25:56;5.43;;;1.65;;
75937;SDS011;64615;32.062;34.834;2024-02-04T06:28:22;4.60;;;1.75;;
75937;SDS011;64615;32.062;34.834;2024-02-04T06:30:48;6.22;;;1.77;;
75937;SDS011;64615;32.062;34.834;2024-02-04T06:33:14;10.52;;;2.20;;
75937;SDS011;64615;32.062;34.834;2024-02-04T06:35:40;7.47;;;2.25;;
75937;SDS011;64615;32.062;34.834;2024-02-04T06:38:05;7.82;;;2.33;;
75937;SDS011;64615;32.062;34.834;2024-02-04T06:40:31;8.98;;;2.20;;
75937;SDS011;64615;32.062;34.834;2024-02-04T06:42:56;9.02;;;1.83;;
75937;SDS011;64615;32.062;34.834;2024-02-04T06:45:22;6.05;;;1.90;;
75937;SDS011;64615;32.062;34.834;2024-02-04T06:47:48;5.30;;;1.80;;
75937;SDS011;64615;32.062;34.834;2024-02-04T06:50:13;3.90;;;1.60;;
75937;SDS011;64615;32.062;34.834;2024-02-04T06:52:42;5.47;;;1.50;;
75937;SDS011;64615;32.062;34.834;2024-02-04T06:55:09;4.38;;;1.45;;
75937;SDS011;64615;32.062;34.834;2024-02-04T06:57:35;3.90;;;1.50;;
75937;SDS011;64615;32.062;34.834;2024-02-04T07:00:00;4.72;;;1.90;;
75937;SDS011;64615;32.062;34.834;2024-02-04T07:02:30;3.90;;;1.90;;
75937;SDS011;64615;32.062;34.834;2024-02-04T07:04:56;4.80;;;1.88;;
75937;SDS011;64615;32.062;34.834;2024-02-04T07:07:22;12.45;;;2.55;;
75937;SDS011;64615;32.062;34.834;2024-02-04T07:09:48;8.77;;;2.63;;
75937;SDS011;64615;32.062;34.834;2024-02-04T07:12:13;8.55;;;3.20;;
75937;SDS011;64615;32.062;34.834;2024-02-04T07:14:39;7.60;;;3.53;;
75937;SDS011;64615;32.062;34.834;2024-02-04T07:17:04;11.57;;;3.83;;
75937;SDS011;64615;32.062;34.834;2024-02-04T07:19:30;9.35;;;3.80;;
75937;SDS011;64615;32.062;34.834;2024-02-04T07:21:56;8.82;;;3.60;;
75937;SDS011;64615;32.062;34.834;2024-02-04T07:24:22;8.73;;;3.58;;
75937;SDS011;64615;32.062;34.834;2024-02-04T07:26:47;10.18;;;3.58;;
75937;SDS011;64615;32.062;34.834;2024-02-04T07:29:13;11.35;;;3.22;;
75937;SDS011;64615;32.062;34.834;2024-02-04T07:31:38;7.28;;;2.97;;
75937;SDS011;64615;32.062;34.834;2024-02-04T07:34:04;11.38;;;2.92;;
75937;SDS011;64615;32.062;34.834;2024-02-04T07:36:30;7.80;;;2.70;;
75937;SDS011;64615;32.062;34.834;2024-02-04T07:38:56;7.80;;;2.88;;
75937;SDS011;64615;32.062;34.834;2024-02-04T07:41:22;8.27;;;2.53;;
75937;SDS011;64615;32.062;34.834;2024-02-04T07:43:48;6.60;;;2.25;;
75937;SDS011;64615;32.062;34.834;2024-02-04T07:46:14;7.70;;;2.20;;
75937;SDS011;64615;32.062;34.834;2024-02-04T07:48:39;9.27;;;2.30;;
75937;SDS011;64615;32.062;34.834;2024-02-04T07:51:06;10.50;;;3.05;;
75937;SDS011;64615;32.062;34.834;2024-02-04T07:53:32;8.02;;;2.35;;
75937;SDS011;64615;32.062;34.834;2024-02-04T07:55:57;6.82;;;2.58;;
75937;SDS011;64615;32.062;34.834;2024-02-04T07:58:23;11.77;;;2.42;;
75937;SDS011;64615;32.062;34.834;2024-02-04T08:00:49;10.73;;;2.72;;
75937;SDS011;64615;32.062;34.834;2024-02-04T08:03:14;9.80;;;2.58;;
75937;SDS011;64615;32.062;34.834;2024-02-04T08:05:40;6.00;;;2.25;;
75937;SDS011;64615;32.062;34.834;2024-02-04T08:08:05;6.82;;;2.45;;
75937;SDS011;64615;32.062;34.834;2024-02-04T08:10:31;6.75;;;2.13;;
75937;SDS011;64615;32.062;34.834;2024-02-04T08:12:57;8.30;;;2.22;;
75937;SDS011;64615;32.062;34.834;2024-02-04T08:15:22;6.75;;;2.33;;
75937;SDS011;64615;32.062;34.834;2024-02-04T08:17:48;7.82;;;2.33;;
75937;SDS011;64615;32.062;34.834;2024-02-04T08:20:14;5.13;;;1.90;;
75937;SDS011;64615;32.062;34.834;2024-02-04T08:22:39;6.30;;;2.45;;
75937;SDS011;64615;32.062;34.834;2024-02-04T08:25:05;6.07;;;2.17;;
75937;SDS011;64615;32.062;34.834;2024-02-04T08:27:31;5.63;;;2.05;;
75937;SDS011;64615;32.062;34.834;2024-02-04T08:29:57;6.18;;;2.15;;
75937;SDS011;64615;32.062;34.834;2024-02-04T08:32:22;7.60;;;2.30;;
75937;SDS011;64615;32.062;34.834;2024-02-04T08:34:48;7.43;;;2.10;;
75937;SDS011;64615;32.062;34.834;2024-02-04T08:37:14;6.68;;;2.22;;
75937;SDS011;64615;32.062;34.834;2024-02-04T08:39:39;5.78;;;1.92;;
75937;SDS011;64615;32.062;34.834;2024-02-04T08:42:05;7.00;;;2.20;;
75937;SDS011;64615;32.062;34.834;2024-02-04T08:44:31;8.45;;;2.10;;
75937;SDS011;64615;32.062;34.834;2024-02-04T08:46:56;6.65;;;2.00;;
75937;SDS011;64615;32.062;34.834;2024-02-04T08:49:22;6.88;;;2.50;;
75937;SDS011;64615;32.062;34.834;2024-02-04T08:51:48;7.70;;;2.35;;
75937;SDS011;64615;32.062;34.834;2024-02-04T08:54:13;6.53;;;2.15;;
75937;SDS011;64615;32.062;34.834;2024-02-04T08:56:39;5.50;;;2.10;;
75937;SDS011;64615;32.062;34.834;2024-02-04T08:59:05;5.38;;;2.20;;
75937;SDS011;64615;32.062;34.834;2024-02-04T09:01:31;7.60;;;2.47;;
75937;SDS011;64615;32.062;34.834;2024-02-04T09:03:57;7.90;;;2.28;;
75937;SDS011;64615;32.062;34.834;2024-02-04T09:06:23;6.97;;;2.25;;
75937;SDS011;64615;32.062;34.834;2024-02-04T09:08:48;4.90;;;2.10;;
75937;SDS011;64615;32.062;34.834;2024-02-04T09:11:15;9.65;;;2.35;;
75937;SDS011;64615;32.062;34.834;2024-02-04T09:13:47;6.38;;;2.25;;
75937;SDS011;64615;32.062;34.834;2024-02-04T09:16:13;4.85;;;2.10;;
75937;SDS011;64615;32.062;34.834;2024-02-04T09:18:38;9.10;;;2.20;;
75937;SDS011;64615;32.062;34.834;2024-02-04T09:21:04;6.13;;;2.28;;
75937;SDS011;64615;32.062;34.834;2024-02-04T09:23:30;7.22;;;2.47;;
75937;SDS011;64615;32.062;34.834;2024-02-04T09:25:55;9.52;;;2.30;;
75937;SDS011;64615;32.062;34.834;2024-02-04T09:28:21;5.88;;;2.40;;
75937;SDS011;64615;32.062;34.834;2024-02-04T09:30:46;6.88;;;2.35;;
75937;SDS011;64615;32.062;34.834;2024-02-04T09:33:13;9.50;;;2.75;;
75937;SDS011;64615;32.062;34.834;2024-02-04T09:35:39;7.05;;;2.35;;
75937;SDS011;64615;32.062;34.834;2024-02-04T09:38:05;6.78;;;2.40;;
75937;SDS011;64615;32.062;34.834;2024-02-04T09:40:31;8.23;;;2.30;;
75937;SDS011;64615;32.062;34.834;2024-02-04T09:42:57;6.50;;;2.22;;
75937;SDS011;64615;32.062;34.834;2024-02-04T09:45:24;6.05;;;2.40;;
75937;SDS011;64615;32.062;34.834;2024-02-04T09:47:51;9.38;;;2.50;;
75937;SDS011;64615;32.062;34.834;2024-02-04T09:50:21;5.88;;;2.17;;
75937;SDS011;64615;32.062;34.834;2024-02-04T09:52:51;7.25;;;2.33;;
75937;SDS011;64615;32.062;34.834;2024-02-04T09:55:28;8.57;;;2.25;;
75937;SDS011;64615;32.062;34.834;2024-02-04T09:57:55;6.03;;;2.22;;
75937;SDS011;64615;32.062;34.834;2024-02-04T10:00:21;8.20;;;2.22;;
75937;SDS011;64615;32.062;34.834;2024-02-04T10:02:48;6.03;;;2.30;;
75937;SDS011;64615;32.062;34.834;2024-02-04T10:05:14;6.43;;;2.70;;
75937;SDS011;64615;32.062;34.834;2024-02-04T10:07:40;8.88;;;2.55;;
75937;SDS011;64615;32.062;34.834;2024-02-04T10:10:07;7.13;;;2.38;;
75937;SDS011;64615;32.062;34.834;2024-02-04T10:12:33;7.88;;;2.83;;
75937;SDS011;64615;32.062;34.834;2024-02-04T10:15:01;8.02;;;2.63;;
75937;SDS011;64615;32.062;34.834;2024-02-04T10:17:30;7.10;;;2.35;;
75937;SDS011;64615;32.062;34.834;2024-02-04T10:19:56;7.75;;;2.55;;
75937;SDS011;64615;32.062;34.834;2024-02-04T10:22:22;7.10;;;2.95;;
75937;SDS011;64615;32.062;34.834;2024-02-04T10:24:48;7.57;;;2.55;;
75937;SDS011;64615;32.062;34.834;2024-02-04T10:27:14;5.90;;;2.45;;
75937;SDS011;64615;32.062;34.834;2024-02-04T10:29:40;7.00;;;2.50;;
75937;SDS011;64615;32.062;34.834;2024-02-04T10:32:06;6.60;;;2.45;;
75937;SDS011;64615;32.062;34.834;2024-02-04T10:34:36;6.88;;;2.30;;
75937;SDS011;64615;32.062;34.834;2024-02-04T10:37:03;5.95;;;2.20;;
75937;SDS011;64615;32.062;34.834;2024-02-04T10:39:28;7.45;;;2.70;;
75937;SDS011;64615;32.062;34.834;2024-02-04T10:41:54;7.97;;;2.47;;
75937;SDS011;64615;32.062;34.834;2024-02-04T10:44:24;5.70;;;2.30;;
75937;SDS011;64615;32.062;34.834;2024-02-04T10:46:51;7.63;;;2.40;;
75937;SDS011;64615;32.062;34.834;2024-02-04T10:49:19;5.97;;;2.30;;
75937;SDS011;64615;32.062;34.834;2024-02-04T10:51:45;6.05;;;2.10;;
75937;SDS011;64615;32.062;34.834;2024-02-04T10:54:14;9.65;;;2.70;;
75937;SDS011;64615;32.062;34.834;2024-02-04T10:56:42;7.45;;;2.60;;
75937;SDS011;64615;32.062;34.834;2024-02-04T10:59:09;7.70;;;2.30;;
75937;SDS011;64615;32.062;34.834;2024-02-04T11:01:40;7.22;;;2.42;;
75937;SDS011;64615;32.062;34.834;2024-02-04T11:04:10;6.88;;;2.50;;
75937;SDS011;64615;32.062;34.834;2024-02-04T11:06:37;6.45;;;2.47;;
75937;SDS011;64615;32.062;34.834;2024-02-04T11:09:06;7.03;;;2.35;;
75937;SDS011;64615;32.062;34.834;2024-02-04T11:11:35;8.80;;;2.63;;
75937;SDS011;64615;32.062;34.834;2024-02-04T11:14:02;7.22;;;2.75;;
75937;SDS011;64615;32.062;34.834;2024-02-04T11:19:11;7.90;;;2.22;;
75937;SDS011;64615;32.062;34.834;2024-02-04T11:27:14;6.10;;;2.60;;
75937;SDS011;64615;32.062;34.834;2024-02-04T11:29:41;7.68;;;2.33;;
75937;SDS011;64615;32.062;34.834;2024-02-04T11:32:07;7.82;;;2.42;;
75937;SDS011;64615;32.062;34.834;2024-02-04T11:34:33;13.75;;;2.40;;
75937;SDS011;64615;32.062;34.834;2024-02-04T11:36:59;17.40;;;2.97;;
75937;SDS011;64615;32.062;34.834;2024-02-04T11:39:25;22.30;;;2.75;;
75937;SDS011;64615;32.062;34.834;2024-02-04T11:41:51;26.17;;;3.03;;
75937;SDS011;64615;32.062;34.834;2024-02-04T11:44:23;12.73;;;2.47;;
75937;SDS011;64615;32.062;34.834;2024-02-04T11:46:51;9.95;;;2.72;;
75937;SDS011;64615;32.062;34.834;2024-02-04T11:49:17;12.05;;;2.40;;
75937;SDS011;64615;32.062;34.834;2024-02-04T11:51:48;7.75;;;2.25;;
75937;SDS011;64615;32.062;34.834;2024-02-04T11:54:20;13.02;;;2.33;;
75937;SDS011;64615;32.062;34.834;2024-02-04T11:56:49;13.27;;;2.70;;
75937;SDS011;64615;32.062;34.834;2024-02-04T11:59:20;13.10;;;2.65;;
75937;SDS011;64615;32.062;34.834;2024-02-04T12:01:47;12.63;;;2.42;;
75937;SDS011;64615;32.062;34.834;2024-02-04T12:04:14;10.30;;;2.47;;
75937;SDS011;64615;32.062;34.834;2024-02-04T12:06:41;5.85;;;2.20;;
75937;SDS011;64615;32.062;34.834;2024-02-04T12:09:08;5.47;;;1.92;;
75937;SDS011;64615;32.062;34.834;2024-02-04T12:11:38;10.40;;;2.45;;
75937;SDS011;64615;32.062;34.834;2024-02-04T12:14:04;5.68;;;2.10;;
75937;SDS011;64615;32.062;34.834;2024-02-04T12:16:32;7.38;;;1.90;;
75937;SDS011;64615;32.062;34.834;2024-02-04T12:19:00;7.95;;;2.20;;
75937;SDS011;64615;32.062;34.834;2024-02-04T12:21:28;6.03;;;2.30;;
75937;SDS011;64615;32.062;34.834;2024-02-04T12:23:54;5.90;;;1.90;;
75937;SDS011;64615;32.062;34.834;2024-02-04T12:26:20;7.65;;;2.45;;
75937;SDS011;64615;32.062;34.834;2024-02-04T12:28:47;9.25;;;2.10;;
75937;SDS011;64615;32.062;34.834;2024-02-04T12:31:17;7.65;;;2.17;;
75937;SDS011;64615;32.062;34.834;2024-02-04T12:33:51;8.27;;;1.80;;
75937;SDS011;64615;32.062;34.834;2024-02-04T12:36:18;6.05;;;1.92;;
75937;SDS011;64615;32.062;34.834;2024-02-04T12:38:49;6.95;;;2.15;;
75937;SDS011;64615;32.062;34.834;2024-02-04T12:41:16;5.53;;;2.13;;
75937;SDS011;64615;32.062;34.834;2024-02-04T12:43:41;4.68;;;1.83;;
75937;SDS011;64615;32.062;34.834;2024-02-04T12:46:07;5.00;;;1.60;;
75937;SDS011;64615;32.062;34.834;2024-02-04T12:48:33;5.43;;;1.55;;
75937;SDS011;64615;32.062;34.834;2024-02-04T12:51:00;6.32;;;1.70;;
75937;SDS011;64615;32.062;34.834;2024-02-04T12:53:26;5.38;;;1.48;;
75937;SDS011;64615;32.062;34.834;2024-02-04T12:55:57;5.63;;;1.73;;
75937;SDS011;64615;32.062;34.834;2024-02-04T12:58:23;4.85;;;1.83;;
75937;SDS011;64615;32.062;34.834;2024-02-04T13:00:49;3.58;;;1.33;;
75937;SDS011;64615;32.062;34.834;2024-02-04T13:03:26;3.75;;;1.63;;
75937;SDS011;64615;32.062;34.834;2024-02-04T13:05:51;5.10;;;1.60;;
75937;SDS011;64615;32.062;34.834;2024-02-04T13:08:25;5.15;;;1.75;;
75937;SDS011;64615;32.062;34.834;2024-02-04T13:10:56;5.72;;;1.67;;
75937;SDS011;64615;32.062;34.834;2024-02-04T13:13:23;4.35;;;1.58;;
75937;SDS011;64615;32.062;34.834;2024-02-04T13:15:53;6.90;;;1.83;;
75937;SDS011;64615;32.062;34.834;2024-02-04T13:18:19;5.75;;;1.83;;
75937;SDS011;64615;32.062;34.834;2024-02-04T13:20:45;7.75;;;2.10;;
75937;SDS011;64615;32.062;34.834;2024-02-04T13:23:11;4.93;;;1.90;;
75937;SDS011;64615;32.062;34.834;2024-02-04T13:25:37;7.75;;;2.08;;
75937;SDS011;64615;32.062;34.834;2024-02-04T13:28:03;4.45;;;1.80;;
75937;SDS011;64615;32.062;34.834;2024-02-04T13:30:29;4.75;;;1.50;;
75937;SDS011;64615;32.062;34.834;2024-02-04T13:32:55;3.53;;;1.40;;
75937;SDS011;64615;32.062;34.834;2024-02-04T13:35:23;4.72;;;1.88;;
75937;SDS011;64615;32.062;34.834;2024-02-04T13:37:49;6.57;;;2.00;;
75937;SDS011;64615;32.062;34.834;2024-02-04T13:40:20;8.07;;;1.60;;
75937;SDS011;64615;32.062;34.834;2024-02-04T13:42:48;9.07;;;1.50;;
75937;SDS011;64615;32.062;34.834;2024-02-04T13:45:14;4.35;;;1.83;;
75937;SDS011;64615;32.062;34.834;2024-02-04T13:47:40;5.50;;;1.60;;
75937;SDS011;64615;32.062;34.834;2024-02-04T13:50:06;4.53;;;1.42;;
75937;SDS011;64615;32.062;34.834;2024-02-04T13:52:36;3.92;;;1.77;;
75937;SDS011;64615;32.062;34.834;2024-02-04T13:55:03;3.55;;;1.50;;
75937;SDS011;64615;32.062;34.834;2024-02-04T13:57:32;7.30;;;1.70;;
75937;SDS011;64615;32.062;34.834;2024-02-04T13:59:58;6.82;;;1.60;;
75937;SDS011;64615;32.062;34.834;2024-02-04T14:02:24;9.20;;;1.85;;
75937;SDS011;64615;32.062;34.834;2024-02-04T14:04:51;11.07;;;1.80;;
75937;SDS011;64615;32.062;34.834;2024-02-04T14:07:18;11.35;;;2.00;;
75937;SDS011;64615;32.062;34.834;2024-02-04T14:09:43;12.93;;;1.85;;
75937;SDS011;64615;32.062;34.834;2024-02-04T14:12:09;7.97;;;1.77;;
75937;SDS011;64615;32.062;34.834;2024-02-04T14:14:36;8.65;;;1.70;;
75937;SDS011;64615;32.062;34.834;2024-02-04T14:17:02;4.55;;;1.60;;
75937;SDS011;64615;32.062;34.834;2024-02-04T14:19:28;14.93;;;1.80;;
75937;SDS011;64615;32.062;34.834;2024-02-04T14:21:54;8.45;;;1.70;;
75937;SDS011;64615;32.062;34.834;2024-02-04T14:24:19;14.73;;;1.80;;
75937;SDS011;64615;32.062;34.834;2024-02-04T14:26:45;5.63;;;1.42;;
75937;SDS011;64615;32.062;34.834;2024-02-04T14:29:11;2.72;;;1.10;;
75937;SDS011;64615;32.062;34.834;2024-02-04T14:31:36;6.72;;;1.52;;
75937;SDS011;64615;32.062;34.834;2024-02-04T14:34:02;7.10;;;1.20;;
75937;SDS011;64615;32.062;34.834;2024-02-04T14:36:28;4.57;;;1.17;;
75937;SDS011;64615;32.062;34.834;2024-02-04T14:38:54;4.57;;;1.27;;
75937;SDS011;64615;32.062;34.834;2024-02-04T14:41:19;4.50;;;1.10;;
75937;SDS011;64615;32.062;34.834;2024-02-04T14:43:45;7.82;;;1.20;;
75937;SDS011;64615;32.062;34.834;2024-02-04T14:46:11;9.60;;;1.50;;